الصفحة الرئيسية
METAR-TAF:

METAR-TAF

مطار :

Mar del Plata, الأرجنتين

دائرة عرض: 37-56S, خط طول: 057-35W, ارتفاع: 18 متر

مراقبة الطقس الحالي

تاريخ ووقت الإصدار 59 دقيقة قبل الساعة 01:00UTC
ريح 3 عقدة من الغرب
درجة الحرارة 2°درجة مئوية
الرطوبة 87%
ضغط 1030 hPa
الرؤية 10 كم أو أكثر
غيوم متفرقة على ارتفاع 2000 قدم
غيوم مفككة على ارتفاع 2500 قدم

METAR: SAZM 260100Z 28003KT 9999 SCT020 BKN025 02/00 Q1030

زمن: 22:59 (01:59 UTC)

توقعات

تاريخ ووقت الإصدار 2ساعات و 59 دقيقة قبل الساعة 23:00UTC
التوقعات صالحة من26 الساعة 00 UTC إلى 26 الساعة 24 UTC
ريح 5 عقدة من الجنوب الغربي
الرؤية 10 كم أو أكثر
غيوم متفرقة على ارتفاع 2000 قدم
غيوم مفككة على ارتفاع 4500 قدم
مؤقت
من 26 الساعة 02 UTC إلى 26 الساعة 12 UTC
الرؤية: 5000 متر
غيوم متفرقة على ارتفاع 1500 قدم
غيوم مفككة على ارتفاع 2500 قدم
زخات من المطر
أصبح
من 26 الساعة 21 UTC إلى 26 الساعة 23 UTC
الرؤية 10 كم أو أكثر
الغيوم لا تقل 1500 م ولا وجود لمزنة ركامية السحاب الأسود

TAF: SAZM 252300Z 2600/2624 23005KT 9999 SCT020 BKN045 TX10/2618Z TN06/2610Z TEMPO 2602/2612 5000 SHRA SCT015 BKN025 BECMG 2621/2623 CAVOK

أرصاد الطقس والتوقعات من أكثر من 4000 مطار (تقارير الطقس للمطار METAR والتنبؤ بالطقس بالمطارTAF).

المحطات المتاحة هي النقط الصفراء والحمراء على الخريطة.

حرك المؤشر فوق النقطة لمعرفة اسم المحطة.

ثم انقر لمعرفة أرصاد وتوقعات الطقس.

لتغيير الخارطة: اضغط على الأزرار الخضراء مع رمز الصليب الأسود للتكبير. على الزر الأخضر مع شرطة للتصغير، أو على الأسهم الخضراء للخرائط المجاورة.


METAR-TAF: